sensor_id;sensor_type;location;lat;lon;timestamp;temperature;humidity
45619;DHT22;31343;47.520;19.144;2023-11-21T00:00:21;6.60;99.90
45619;DHT22;31343;47.520;19.144;2023-11-21T00:02:47;6.60;99.90
45619;DHT22;31343;47.520;19.144;2023-11-21T00:05:13;6.60;99.90
45619;DHT22;31343;47.520;19.144;2023-11-21T00:07:40;6.60;99.90
45619;DHT22;31343;47.520;19.144;2023-11-21T00:10:06;6.50;99.90
45619;DHT22;31343;47.520;19.144;2023-11-21T00:12:34;6.50;99.90
45619;DHT22;31343;47.520;19.144;2023-11-21T00:15:00;6.40;99.90
45619;DHT22;31343;47.520;19.144;2023-11-21T00:17:27;6.40;99.90
45619;DHT22;31343;47.520;19.144;2023-11-21T00:19:53;6.50;99.90
45619;DHT22;31343;47.520;19.144;2023-11-21T00:22:19;6.60;99.90
45619;DHT22;31343;47.520;19.144;2023-11-21T00:24:45;6.60;99.90
45619;DHT22;31343;47.520;19.144;2023-11-21T00:27:11;6.50;99.90
45619;DHT22;31343;47.520;19.144;2023-11-21T00:29:37;6.50;99.90
45619;DHT22;31343;47.520;19.144;2023-11-21T00:32:05;6.50;99.90
45619;DHT22;31343;47.520;19.144;2023-11-21T00:34:31;6.40;99.90
45619;DHT22;31343;47.520;19.144;2023-11-21T00:36:58;6.30;99.90
45619;DHT22;31343;47.520;19.144;2023-11-21T00:39:25;6.20;99.90
45619;DHT22;31343;47.520;19.144;2023-11-21T00:41:51;6.20;99.90
45619;DHT22;31343;47.520;19.144;2023-11-21T00:44:17;6.10;99.90
45619;DHT22;31343;47.520;19.144;2023-11-21T00:46:43;6.00;99.90
45619;DHT22;31343;47.520;19.144;2023-11-21T00:49:09;5.90;99.90
45619;DHT22;31343;47.520;19.144;2023-11-21T00:51:34;5.90;99.90
45619;DHT22;31343;47.520;19.144;2023-11-21T00:54:01;6.00;99.90
45619;DHT22;31343;47.520;19.144;2023-11-21T00:56:27;6.00;99.90
45619;DHT22;31343;47.520;19.144;2023-11-21T00:58:53;6.00;99.90
45619;DHT22;31343;47.520;19.144;2023-11-21T01:01:20;5.90;99.90
45619;DHT22;31343;47.520;19.144;2023-11-21T01:03:46;5.80;99.90
45619;DHT22;31343;47.520;19.144;2023-11-21T01:06:13;5.80;99.90
45619;DHT22;31343;47.520;19.144;2023-11-21T01:08:39;5.70;99.90
45619;DHT22;31343;47.520;19.144;2023-11-21T01:11:04;5.70;99.90
45619;DHT22;31343;47.520;19.144;2023-11-21T01:13:33;5.60;99.90
45619;DHT22;31343;47.520;19.144;2023-11-21T01:15:59;5.70;99.90
45619;DHT22;31343;47.520;19.144;2023-11-21T01:18:26;5.60;99.90
45619;DHT22;31343;47.520;19.144;2023-11-21T01:20:51;5.60;99.90
45619;DHT22;31343;47.520;19.144;2023-11-21T01:23:20;5.60;99.90
45619;DHT22;31343;47.520;19.144;2023-11-21T01:25:46;5.70;99.90
45619;DHT22;31343;47.520;19.144;2023-11-21T01:28:12;5.70;99.90
45619;DHT22;31343;47.520;19.144;2023-11-21T01:30:38;5.60;99.90
45619;DHT22;31343;47.520;19.144;2023-11-21T01:33:04;5.60;99.90
45619;DHT22;31343;47.520;19.144;2023-11-21T01:35:30;5.70;99.90
45619;DHT22;31343;47.520;19.144;2023-11-21T01:37:56;5.50;99.90
45619;DHT22;31343;47.520;19.144;2023-11-21T01:40:23;5.50;99.90
45619;DHT22;31343;47.520;19.144;2023-11-21T01:42:49;5.50;99.90
45619;DHT22;31343;47.520;19.144;2023-11-21T01:45:15;5.30;99.90
45619;DHT22;31343;47.520;19.144;2023-11-21T01:47:42;5.30;99.90
45619;DHT22;31343;47.520;19.144;2023-11-21T01:50:14;5.30;99.90
45619;DHT22;31343;47.520;19.144;2023-11-21T01:52:44;5.20;99.90
45619;DHT22;31343;47.520;19.144;2023-11-21T01:55:10;5.20;99.90
45619;DHT22;31343;47.520;19.144;2023-11-21T01:57:37;5.10;99.90
45619;DHT22;31343;47.520;19.144;2023-11-21T02:00:04;5.10;99.90
45619;DHT22;31343;47.520;19.144;2023-11-21T02:02:48;5.10;99.90
45619;DHT22;31343;47.520;19.144;2023-11-21T02:05:19;5.10;99.90
45619;DHT22;31343;47.520;19.144;2023-11-21T02:07:45;5.10;99.90
45619;DHT22;31343;47.520;19.144;2023-11-21T02:10:14;5.00;99.90
45619;DHT22;31343;47.520;19.144;2023-11-21T02:12:41;5.00;99.90
45619;DHT22;31343;47.520;19.144;2023-11-21T02:15:10;5.20;99.90
45619;DHT22;31343;47.520;19.144;2023-11-21T02:17:43;5.10;99.90
45619;DHT22;31343;47.520;19.144;2023-11-21T02:20:11;5.10;99.90
45619;DHT22;31343;47.520;19.144;2023-11-21T02:22:41;5.10;99.90
45619;DHT22;31343;47.520;19.144;2023-11-21T02:25:09;5.00;99.90
45619;DHT22;31343;47.520;19.144;2023-11-21T02:27:35;5.10;99.90
45619;DHT22;31343;47.520;19.144;2023-11-21T02:30:00;5.20;99.90
45619;DHT22;31343;47.520;19.144;2023-11-21T02:32:26;5.10;99.90
45619;DHT22;31343;47.520;19.144;2023-11-21T02:34:52;5.10;99.90
45619;DHT22;31343;47.520;19.144;2023-11-21T02:37:21;5.20;99.90
45619;DHT22;31343;47.520;19.144;2023-11-21T02:39:47;5.20;99.90
45619;DHT22;31343;47.520;19.144;2023-11-21T02:42:13;5.20;99.90
45619;DHT22;31343;47.520;19.144;2023-11-21T02:44:38;5.10;99.90
45619;DHT22;31343;47.520;19.144;2023-11-21T02:47:04;5.10;99.90
45619;DHT22;31343;47.520;19.144;2023-11-21T02:49:31;5.10;99.90
45619;DHT22;31343;47.520;19.144;2023-11-21T02:51:57;5.10;99.90
45619;DHT22;31343;47.520;19.144;2023-11-21T02:54:23;5.10;99.90
45619;DHT22;31343;47.520;19.144;2023-11-21T02:56:49;5.10;99.90
45619;DHT22;31343;47.520;19.144;2023-11-21T02:59:15;5.10;99.90
45619;DHT22;31343;47.520;19.144;2023-11-21T03:01:41;5.00;99.90
45619;DHT22;31343;47.520;19.144;2023-11-21T03:04:07;5.10;99.90
45619;DHT22;31343;47.520;19.144;2023-11-21T03:06:33;5.10;99.90
45619;DHT22;31343;47.520;19.144;2023-11-21T03:08:59;5.10;99.90
45619;DHT22;31343;47.520;19.144;2023-11-21T03:11:25;5.10;99.90
45619;DHT22;31343;47.520;19.144;2023-11-21T03:13:51;5.20;99.90
45619;DHT22;31343;47.520;19.144;2023-11-21T03:16:18;5.30;99.90
45619;DHT22;31343;47.520;19.144;2023-11-21T03:18:44;5.30;99.90
45619;DHT22;31343;47.520;19.144;2023-11-21T03:21:10;5.30;99.90
45619;DHT22;31343;47.520;19.144;2023-11-21T03:23:36;5.20;99.90
45619;DHT22;31343;47.520;19.144;2023-11-21T03:26:03;5.20;99.90
45619;DHT22;31343;47.520;19.144;2023-11-21T03:28:30;5.20;99.90
45619;DHT22;31343;47.520;19.144;2023-11-21T03:30:56;5.10;99.90
45619;DHT22;31343;47.520;19.144;2023-11-21T03:33:22;5.10;99.90
45619;DHT22;31343;47.520;19.144;2023-11-21T03:35:48;5.10;99.90
45619;DHT22;31343;47.520;19.144;2023-11-21T03:38:14;5.00;99.90
45619;DHT22;31343;47.520;19.144;2023-11-21T03:40:41;5.00;99.90
45619;DHT22;31343;47.520;19.144;2023-11-21T03:43:07;5.00;99.90
45619;DHT22;31343;47.520;19.144;2023-11-21T03:45:33;5.10;99.90
45619;DHT22;31343;47.520;19.144;2023-11-21T03:47:59;5.10;99.90
45619;DHT22;31343;47.520;19.144;2023-11-21T03:50:30;5.10;99.90
45619;DHT22;31343;47.520;19.144;2023-11-21T03:52:57;5.10;99.90
45619;DHT22;31343;47.520;19.144;2023-11-21T03:55:22;5.10;99.90
45619;DHT22;31343;47.520;19.144;2023-11-21T03:57:50;5.10;99.90
45619;DHT22;31343;47.520;19.144;2023-11-21T04:00:17;5.20;99.90
45619;DHT22;31343;47.520;19.144;2023-11-21T04:02:43;5.20;99.90
45619;DHT22;31343;47.520;19.144;2023-11-21T04:05:09;5.20;99.90
45619;DHT22;31343;47.520;19.144;2023-11-21T04:07:35;5.20;99.90
45619;DHT22;31343;47.520;19.144;2023-11-21T04:10:01;5.10;99.90
45619;DHT22;31343;47.520;19.144;2023-11-21T04:12:26;5.10;99.90
45619;DHT22;31343;47.520;19.144;2023-11-21T04:14:52;5.10;99.90
45619;DHT22;31343;47.520;19.144;2023-11-21T04:17:19;5.10;99.90
45619;DHT22;31343;47.520;19.144;2023-11-21T04:19:47;5.10;99.90
45619;DHT22;31343;47.520;19.144;2023-11-21T04:22:13;5.20;99.90
45619;DHT22;31343;47.520;19.144;2023-11-21T04:24:39;5.10;99.90
45619;DHT22;31343;47.520;19.144;2023-11-21T04:27:05;5.10;99.90
45619;DHT22;31343;47.520;19.144;2023-11-21T04:29:31;5.10;99.90
45619;DHT22;31343;47.520;19.144;2023-11-21T04:31:56;5.10;99.90
45619;DHT22;31343;47.520;19.144;2023-11-21T04:34:22;5.10;99.90
45619;DHT22;31343;47.520;19.144;2023-11-21T04:36:50;5.10;99.90
45619;DHT22;31343;47.520;19.144;2023-11-21T04:39:16;5.20;99.90
45619;DHT22;31343;47.520;19.144;2023-11-21T04:41:41;5.30;99.90
45619;DHT22;31343;47.520;19.144;2023-11-21T04:44:09;5.20;99.90
45619;DHT22;31343;47.520;19.144;2023-11-21T04:46:34;5.20;99.90
45619;DHT22;31343;47.520;19.144;2023-11-21T04:49:00;5.30;99.90
45619;DHT22;31343;47.520;19.144;2023-11-21T04:51:26;5.20;99.90
45619;DHT22;31343;47.520;19.144;2023-11-21T04:53:52;5.30;99.90
45619;DHT22;31343;47.520;19.144;2023-11-21T04:56:17;5.30;99.90
45619;DHT22;31343;47.520;19.144;2023-11-21T04:58:43;5.20;99.90
45619;DHT22;31343;47.520;19.144;2023-11-21T05:01:09;5.20;99.90
45619;DHT22;31343;47.520;19.144;2023-11-21T05:03:35;5.30;99.90
45619;DHT22;31343;47.520;19.144;2023-11-21T05:06:01;5.30;99.90
45619;DHT22;31343;47.520;19.144;2023-11-21T05:08:27;5.30;99.90
45619;DHT22;31343;47.520;19.144;2023-11-21T05:10:53;5.30;99.90
45619;DHT22;31343;47.520;19.144;2023-11-21T05:13:19;5.40;99.90
45619;DHT22;31343;47.520;19.144;2023-11-21T05:15:45;5.40;99.90
45619;DHT22;31343;47.520;19.144;2023-11-21T05:18:11;5.40;99.90
45619;DHT22;31343;47.520;19.144;2023-11-21T05:20:39;5.50;99.90
45619;DHT22;31343;47.520;19.144;2023-11-21T05:23:06;5.40;99.90
45619;DHT22;31343;47.520;19.144;2023-11-21T05:25:33;5.50;99.90
45619;DHT22;31343;47.520;19.144;2023-11-21T05:28:00;5.50;99.90
45619;DHT22;31343;47.520;19.144;2023-11-21T05:30:28;5.60;99.90
45619;DHT22;31343;47.520;19.144;2023-11-21T05:32:53;5.60;99.90
45619;DHT22;31343;47.520;19.144;2023-11-21T05:35:19;5.50;99.90
45619;DHT22;31343;47.520;19.144;2023-11-21T05:37:46;5.50;99.90
45619;DHT22;31343;47.520;19.144;2023-11-21T05:40:13;5.50;99.90
45619;DHT22;31343;47.520;19.144;2023-11-21T05:42:39;5.50;99.90
45619;DHT22;31343;47.520;19.144;2023-11-21T05:45:06;5.50;99.90
45619;DHT22;31343;47.520;19.144;2023-11-21T05:47:44;5.50;99.90
45619;DHT22;31343;47.520;19.144;2023-11-21T05:50:11;5.50;99.90
45619;DHT22;31343;47.520;19.144;2023-11-21T05:52:41;5.60;99.90
45619;DHT22;31343;47.520;19.144;2023-11-21T05:55:08;5.70;99.90
45619;DHT22;31343;47.520;19.144;2023-11-21T05:57:34;5.70;99.90
45619;DHT22;31343;47.520;19.144;2023-11-21T06:00:05;5.80;99.90
45619;DHT22;31343;47.520;19.144;2023-11-21T06:02:41;5.80;99.90
45619;DHT22;31343;47.520;19.144;2023-11-21T06:05:07;5.80;99.90
45619;DHT22;31343;47.520;19.144;2023-11-21T06:07:34;5.80;99.90
45619;DHT22;31343;47.520;19.144;2023-11-21T06:10:07;5.80;99.90
45619;DHT22;31343;47.520;19.144;2023-11-21T06:12:35;5.70;99.90
45619;DHT22;31343;47.520;19.144;2023-11-21T06:15:04;5.70;99.90
45619;DHT22;31343;47.520;19.144;2023-11-21T06:17:32;5.70;99.90
45619;DHT22;31343;47.520;19.144;2023-11-21T06:19:57;5.70;99.90
45619;DHT22;31343;47.520;19.144;2023-11-21T06:22:23;5.70;99.90
45619;DHT22;31343;47.520;19.144;2023-11-21T06:24:51;5.80;99.90
45619;DHT22;31343;47.520;19.144;2023-11-21T06:27:17;5.80;99.90
45619;DHT22;31343;47.520;19.144;2023-11-21T06:29:43;5.80;99.90
45619;DHT22;31343;47.520;19.144;2023-11-21T06:32:08;5.80;99.90
45619;DHT22;31343;47.520;19.144;2023-11-21T06:34:34;5.80;99.90
45619;DHT22;31343;47.520;19.144;2023-11-21T06:37:00;5.80;99.90
45619;DHT22;31343;47.520;19.144;2023-11-21T06:39:26;5.80;99.90
45619;DHT22;31343;47.520;19.144;2023-11-21T06:41:53;5.80;99.90
45619;DHT22;31343;47.520;19.144;2023-11-21T06:44:18;5.80;99.90
45619;DHT22;31343;47.520;19.144;2023-11-21T06:46:45;5.80;99.90
45619;DHT22;31343;47.520;19.144;2023-11-21T06:49:11;5.80;99.90
45619;DHT22;31343;47.520;19.144;2023-11-21T06:51:37;5.80;99.90
45619;DHT22;31343;47.520;19.144;2023-11-21T06:54:03;5.90;99.90
45619;DHT22;31343;47.520;19.144;2023-11-21T06:56:28;6.00;99.90
45619;DHT22;31343;47.520;19.144;2023-11-21T06:58:54;6.10;99.90
45619;DHT22;31343;47.520;19.144;2023-11-21T07:01:20;6.20;99.90
45619;DHT22;31343;47.520;19.144;2023-11-21T07:03:46;6.20;99.90
45619;DHT22;31343;47.520;19.144;2023-11-21T07:06:11;6.30;99.90
45619;DHT22;31343;47.520;19.144;2023-11-21T07:08:37;6.30;99.90
45619;DHT22;31343;47.520;19.144;2023-11-21T07:11:04;6.40;99.90
45619;DHT22;31343;47.520;19.144;2023-11-21T07:13:30;6.40;99.90
45619;DHT22;31343;47.520;19.144;2023-11-21T07:15:57;6.50;99.90
45619;DHT22;31343;47.520;19.144;2023-11-21T07:18:24;6.50;99.90
45619;DHT22;31343;47.520;19.144;2023-11-21T07:20:50;6.50;99.90
45619;DHT22;31343;47.520;19.144;2023-11-21T07:23:15;6.60;99.90
45619;DHT22;31343;47.520;19.144;2023-11-21T07:25:41;6.60;99.90
45619;DHT22;31343;47.520;19.144;2023-11-21T07:28:09;6.70;99.90
45619;DHT22;31343;47.520;19.144;2023-11-21T07:30:35;6.80;99.90
45619;DHT22;31343;47.520;19.144;2023-11-21T07:33:01;6.80;99.90
45619;DHT22;31343;47.520;19.144;2023-11-21T07:35:27;6.80;99.90
45619;DHT22;31343;47.520;19.144;2023-11-21T07:37:52;6.90;99.90
45619;DHT22;31343;47.520;19.144;2023-11-21T07:40:18;7.00;99.90
45619;DHT22;31343;47.520;19.144;2023-11-21T07:42:44;7.00;99.90
45619;DHT22;31343;47.520;19.144;2023-11-21T07:45:10;7.10;99.90
45619;DHT22;31343;47.520;19.144;2023-11-21T07:47:35;7.20;99.90
45619;DHT22;31343;47.520;19.144;2023-11-21T07:50:03;7.30;99.90
45619;DHT22;31343;47.520;19.144;2023-11-21T07:52:29;7.40;99.90
45619;DHT22;31343;47.520;19.144;2023-11-21T07:54:56;7.40;99.90
45619;DHT22;31343;47.520;19.144;2023-11-21T07:57:21;7.50;99.90
45619;DHT22;31343;47.520;19.144;2023-11-21T07:59:47;7.60;99.90
45619;DHT22;31343;47.520;19.144;2023-11-21T08:02:13;7.50;99.90
45619;DHT22;31343;47.520;19.144;2023-11-21T08:04:39;7.60;99.90
45619;DHT22;31343;47.520;19.144;2023-11-21T08:07:05;7.60;99.90
45619;DHT22;31343;47.520;19.144;2023-11-21T08:09:31;7.70;99.90
45619;DHT22;31343;47.520;19.144;2023-11-21T08:11:57;7.70;99.90
45619;DHT22;31343;47.520;19.144;2023-11-21T08:14:23;7.70;99.90
45619;DHT22;31343;47.520;19.144;2023-11-21T08:16:51;7.80;99.90
45619;DHT22;31343;47.520;19.144;2023-11-21T08:19:17;7.70;99.90
45619;DHT22;31343;47.520;19.144;2023-11-21T08:21:44;7.70;99.90
45619;DHT22;31343;47.520;19.144;2023-11-21T08:24:11;7.70;99.90
45619;DHT22;31343;47.520;19.144;2023-11-21T08:26:37;7.70;99.90
45619;DHT22;31343;47.520;19.144;2023-11-21T08:29:04;7.70;99.90
45619;DHT22;31343;47.520;19.144;2023-11-21T08:31:32;7.80;99.90
45619;DHT22;31343;47.520;19.144;2023-11-21T08:33:58;7.90;99.90
45619;DHT22;31343;47.520;19.144;2023-11-21T08:36:25;7.90;99.90
45619;DHT22;31343;47.520;19.144;2023-11-21T08:38:52;8.00;99.90
45619;DHT22;31343;47.520;19.144;2023-11-21T08:41:18;8.10;99.90
45619;DHT22;31343;47.520;19.144;2023-11-21T08:43:49;8.20;99.90
45619;DHT22;31343;47.520;19.144;2023-11-21T08:46:15;8.20;99.90
45619;DHT22;31343;47.520;19.144;2023-11-21T08:48:43;8.20;99.90
45619;DHT22;31343;47.520;19.144;2023-11-21T08:51:10;8.30;99.90
45619;DHT22;31343;47.520;19.144;2023-11-21T08:53:37;8.30;99.90
45619;DHT22;31343;47.520;19.144;2023-11-21T08:56:03;8.50;99.90
45619;DHT22;31343;47.520;19.144;2023-11-21T08:58:31;8.50;99.90
45619;DHT22;31343;47.520;19.144;2023-11-21T09:00:57;8.60;99.90
45619;DHT22;31343;47.520;19.144;2023-11-21T09:03:23;8.60;99.90
45619;DHT22;31343;47.520;19.144;2023-11-21T09:05:50;8.60;99.90
45619;DHT22;31343;47.520;19.144;2023-11-21T09:08:15;8.60;99.90
45619;DHT22;31343;47.520;19.144;2023-11-21T09:10:41;8.50;99.90
45619;DHT22;31343;47.520;19.144;2023-11-21T09:13:08;8.60;99.90
45619;DHT22;31343;47.520;19.144;2023-11-21T09:15:35;8.60;99.90
45619;DHT22;31343;47.520;19.144;2023-11-21T09:18:01;8.70;99.90
45619;DHT22;31343;47.520;19.144;2023-11-21T09:20:27;8.80;99.90
45619;DHT22;31343;47.520;19.144;2023-11-21T09:22:54;8.90;99.90
45619;DHT22;31343;47.520;19.144;2023-11-21T09:25:21;8.90;99.90
45619;DHT22;31343;47.520;19.144;2023-11-21T09:27:46;8.90;99.90
45619;DHT22;31343;47.520;19.144;2023-11-21T09:30:12;9.00;99.90
45619;DHT22;31343;47.520;19.144;2023-11-21T09:32:39;9.00;99.90
45619;DHT22;31343;47.520;19.144;2023-11-21T09:35:06;9.10;99.90
45619;DHT22;31343;47.520;19.144;2023-11-21T09:37:33;9.10;99.90
45619;DHT22;31343;47.520;19.144;2023-11-21T09:39:59;9.10;99.90
45619;DHT22;31343;47.520;19.144;2023-11-21T09:42:40;9.10;99.90
45619;DHT22;31343;47.520;19.144;2023-11-21T09:45:15;9.10;99.90
45619;DHT22;31343;47.520;19.144;2023-11-21T09:47:43;9.00;99.90
45619;DHT22;31343;47.520;19.144;2023-11-21T09:50:09;8.80;99.90
45619;DHT22;31343;47.520;19.144;2023-11-21T09:55:34;8.90;99.90
45619;DHT22;31343;47.520;19.144;2023-11-21T09:58:04;9.00;99.90
45619;DHT22;31343;47.520;19.144;2023-11-21T10:00:33;9.10;99.90
45619;DHT22;31343;47.520;19.144;2023-11-21T10:03:00;9.10;99.90
45619;DHT22;31343;47.520;19.144;2023-11-21T10:05:26;9.10;99.90
45619;DHT22;31343;47.520;19.144;2023-11-21T10:07:53;9.20;99.90
45619;DHT22;31343;47.520;19.144;2023-11-21T10:10:23;9.20;99.90
45619;DHT22;31343;47.520;19.144;2023-11-21T10:12:52;9.20;99.90
45619;DHT22;31343;47.520;19.144;2023-11-21T10:15:24;9.20;99.90
45619;DHT22;31343;47.520;19.144;2023-11-21T10:17:53;9.20;99.90
45619;DHT22;31343;47.520;19.144;2023-11-21T10:20:20;9.20;99.90
45619;DHT22;31343;47.520;19.144;2023-11-21T10:22:46;9.20;99.90
45619;DHT22;31343;47.520;19.144;2023-11-21T10:25:13;9.20;99.90
45619;DHT22;31343;47.520;19.144;2023-11-21T10:27:42;9.20;99.90
45619;DHT22;31343;47.520;19.144;2023-11-21T10:30:09;9.20;99.90
45619;DHT22;31343;47.520;19.144;2023-11-21T10:32:42;9.30;99.90
45619;DHT22;31343;47.520;19.144;2023-11-21T10:35:09;9.30;99.90
45619;DHT22;31343;47.520;19.144;2023-11-21T10:37:39;9.30;99.90
45619;DHT22;31343;47.520;19.144;2023-11-21T10:40:09;9.30;99.90
45619;DHT22;31343;47.520;19.144;2023-11-21T10:42:40;9.30;99.90
45619;DHT22;31343;47.520;19.144;2023-11-21T10:45:10;9.40;99.90
45619;DHT22;31343;47.520;19.144;2023-11-21T10:47:44;9.30;99.90
45619;DHT22;31343;47.520;19.144;2023-11-21T10:50:10;9.40;99.90
45619;DHT22;31343;47.520;19.144;2023-11-21T10:52:40;9.40;99.90
45619;DHT22;31343;47.520;19.144;2023-11-21T10:55:21;9.40;99.90
45619;DHT22;31343;47.520;19.144;2023-11-21T10:57:52;9.40;99.90
45619;DHT22;31343;47.520;19.144;2023-11-21T11:00:18;9.40;99.90
45619;DHT22;31343;47.520;19.144;2023-11-21T11:02:51;9.40;99.90
45619;DHT22;31343;47.520;19.144;2023-11-21T11:05:20;9.50;99.90
45619;DHT22;31343;47.520;19.144;2023-11-21T11:07:48;9.40;99.90
45619;DHT22;31343;47.520;19.144;2023-11-21T11:10:18;9.40;99.90
45619;DHT22;31343;47.520;19.144;2023-11-21T11:12:47;9.30;99.90
45619;DHT22;31343;47.520;19.144;2023-11-21T11:15:13;9.40;99.90
45619;DHT22;31343;47.520;19.144;2023-11-21T11:17:40;9.40;99.90
45619;DHT22;31343;47.520;19.144;2023-11-21T11:20:09;9.50;99.90
45619;DHT22;31343;47.520;19.144;2023-11-21T11:28:08;9.50;99.90
45619;DHT22;31343;47.520;19.144;2023-11-21T11:33:38;9.60;99.90
45619;DHT22;31343;47.520;19.144;2023-11-21T11:36:11;9.60;99.90
45619;DHT22;31343;47.520;19.144;2023-11-21T11:38:39;9.60;99.90
45619;DHT22;31343;47.520;19.144;2023-11-21T11:41:06;9.60;99.90
45619;DHT22;31343;47.520;19.144;2023-11-21T11:43:32;9.60;99.90
45619;DHT22;31343;47.520;19.144;2023-11-21T11:46:01;9.60;99.90
45619;DHT22;31343;47.520;19.144;2023-11-21T11:48:29;9.60;99.90
45619;DHT22;31343;47.520;19.144;2023-11-21T11:51:11;9.60;99.90
45619;DHT22;31343;47.520;19.144;2023-11-21T11:53:41;9.70;99.90
45619;DHT22;31343;47.520;19.144;2023-11-21T11:56:27;9.80;99.90
45619;DHT22;31343;47.520;19.144;2023-11-21T11:58:56;9.80;99.90
45619;DHT22;31343;47.520;19.144;2023-11-21T12:01:24;9.80;99.90
45619;DHT22;31343;47.520;19.144;2023-11-21T12:06:46;9.90;99.90
45619;DHT22;31343;47.520;19.144;2023-11-21T12:11:45;10.00;99.90
45619;DHT22;31343;47.520;19.144;2023-11-21T12:14:12;9.90;99.90
45619;DHT22;31343;47.520;19.144;2023-11-21T12:16:39;9.90;99.90
45619;DHT22;31343;47.520;19.144;2023-11-21T12:19:05;9.90;99.90
45619;DHT22;31343;47.520;19.144;2023-11-21T12:21:31;9.90;99.90
45619;DHT22;31343;47.520;19.144;2023-11-21T12:23:58;9.90;99.90
45619;DHT22;31343;47.520;19.144;2023-11-21T12:26:27;10.00;99.90
45619;DHT22;31343;47.520;19.144;2023-11-21T12:28:54;10.00;99.90
45619;DHT22;31343;47.520;19.144;2023-11-21T12:31:23;10.00;99.90
45619;DHT22;31343;47.520;19.144;2023-11-21T12:33:49;10.00;99.90
45619;DHT22;31343;47.520;19.144;2023-11-21T12:36:16;10.00;99.90
45619;DHT22;31343;47.520;19.144;2023-11-21T12:38:42;10.10;99.90
45619;DHT22;31343;47.520;19.144;2023-11-21T12:41:09;10.20;99.90
45619;DHT22;31343;47.520;19.144;2023-11-21T12:43:36;10.20;99.90
45619;DHT22;31343;47.520;19.144;2023-11-21T12:46:08;10.20;99.90
45619;DHT22;31343;47.520;19.144;2023-11-21T12:48:39;10.20;99.90
45619;DHT22;31343;47.520;19.144;2023-11-21T12:51:10;10.30;99.90
45619;DHT22;31343;47.520;19.144;2023-11-21T12:53:38;10.40;99.90
45619;DHT22;31343;47.520;19.144;2023-11-21T12:56:09;10.30;99.90
45619;DHT22;31343;47.520;19.144;2023-11-21T12:58:37;10.30;99.90
45619;DHT22;31343;47.520;19.144;2023-11-21T13:01:05;10.30;99.90
45619;DHT22;31343;47.520;19.144;2023-11-21T13:03:37;10.30;99.90
45619;DHT22;31343;47.520;19.144;2023-11-21T13:06:04;10.40;99.90
45619;DHT22;31343;47.520;19.144;2023-11-21T13:08:31;10.40;99.90
45619;DHT22;31343;47.520;19.144;2023-11-21T13:10:58;10.40;99.90
45619;DHT22;31343;47.520;19.144;2023-11-21T13:13:27;10.50;99.90
45619;DHT22;31343;47.520;19.144;2023-11-21T13:16:00;10.50;99.90
45619;DHT22;31343;47.520;19.144;2023-11-21T13:18:28;10.50;99.90
45619;DHT22;31343;47.520;19.144;2023-11-21T13:20:55;10.50;99.90
45619;DHT22;31343;47.520;19.144;2023-11-21T13:23:21;10.50;99.90
45619;DHT22;31343;47.520;19.144;2023-11-21T13:25:48;10.50;99.90
45619;DHT22;31343;47.520;19.144;2023-11-21T13:28:15;10.50;99.90
45619;DHT22;31343;47.520;19.144;2023-11-21T13:30:42;10.60;99.90
45619;DHT22;31343;47.520;19.144;2023-11-21T13:33:08;10.50;99.90
45619;DHT22;31343;47.520;19.144;2023-11-21T13:35:37;10.50;99.90
45619;DHT22;31343;47.520;19.144;2023-11-21T13:38:14;10.50;99.90
45619;DHT22;31343;47.520;19.144;2023-11-21T13:40:41;10.50;99.90
45619;DHT22;31343;47.520;19.144;2023-11-21T13:43:13;10.60;99.90
45619;DHT22;31343;47.520;19.144;2023-11-21T13:45:42;10.60;99.90
45619;DHT22;31343;47.520;19.144;2023-11-21T13:48:10;10.60;99.90
45619;DHT22;31343;47.520;19.144;2023-11-21T13:50:43;10.60;99.90
45619;DHT22;31343;47.520;19.144;2023-11-21T13:53:21;10.60;99.90
45619;DHT22;31343;47.520;19.144;2023-11-21T13:55:53;10.50;99.90
45619;DHT22;31343;47.520;19.144;2023-11-21T13:58:25;10.40;99.90
45619;DHT22;31343;47.520;19.144;2023-11-21T14:01:10;10.50;99.90
45619;DHT22;31343;47.520;19.144;2023-11-21T14:03:42;10.50;99.90
45619;DHT22;31343;47.520;19.144;2023-11-21T14:06:17;10.40;99.90
45619;DHT22;31343;47.520;19.144;2023-11-21T14:08:50;10.40;99.90
45619;DHT22;31343;47.520;19.144;2023-11-21T14:11:16;10.40;99.90
45619;DHT22;31343;47.520;19.144;2023-11-21T14:13:44;10.30;99.90
45619;DHT22;31343;47.520;19.144;2023-11-21T14:16:15;10.30;99.90
45619;DHT22;31343;47.520;19.144;2023-11-21T14:18:44;10.30;99.90
45619;DHT22;31343;47.520;19.144;2023-11-21T14:21:22;10.30;99.90
45619;DHT22;31343;47.520;19.144;2023-11-21T14:23:48;10.20;99.90
45619;DHT22;31343;47.520;19.144;2023-11-21T14:26:14;10.20;99.90
45619;DHT22;31343;47.520;19.144;2023-11-21T14:28:42;10.20;99.90
45619;DHT22;31343;47.520;19.144;2023-11-21T14:31:08;10.10;99.90
45619;DHT22;31343;47.520;19.144;2023-11-21T14:33:39;10.10;99.90
45619;DHT22;31343;47.520;19.144;2023-11-21T14:36:06;10.10;99.90
45619;DHT22;31343;47.520;19.144;2023-11-21T14:38:36;10.00;99.90
45619;DHT22;31343;47.520;19.144;2023-11-21T14:41:03;10.00;99.90
45619;DHT22;31343;47.520;19.144;2023-11-21T14:43:31;9.90;99.90
45619;DHT22;31343;47.520;19.144;2023-11-21T14:46:01;9.90;99.90
45619;DHT22;31343;47.520;19.144;2023-11-21T14:48:29;9.80;99.90
45619;DHT22;31343;47.520;19.144;2023-11-21T14:51:08;9.80;99.90
45619;DHT22;31343;47.520;19.144;2023-11-21T14:53:54;9.70;99.90
45619;DHT22;31343;47.520;19.144;2023-11-21T14:56:21;9.60;99.90
45619;DHT22;31343;47.520;19.144;2023-11-21T14:58:53;9.40;99.90
45619;DHT22;31343;47.520;19.144;2023-11-21T15:01:20;9.30;99.90
45619;DHT22;31343;47.520;19.144;2023-11-21T15:04:00;9.30;99.90
45619;DHT22;31343;47.520;19.144;2023-11-21T15:06:26;9.30;99.90
45619;DHT22;31343;47.520;19.144;2023-11-21T15:08:56;9.20;99.90
45619;DHT22;31343;47.520;19.144;2023-11-21T15:11:35;9.10;99.90
45619;DHT22;31343;47.520;19.144;2023-11-21T15:14:03;9.10;99.90
45619;DHT22;31343;47.520;19.144;2023-11-21T15:16:36;9.00;99.90
45619;DHT22;31343;47.520;19.144;2023-11-21T15:19:07;8.90;99.90
45619;DHT22;31343;47.520;19.144;2023-11-21T15:21:35;8.80;99.90
45619;DHT22;31343;47.520;19.144;2023-11-21T15:24:01;8.80;99.90
45619;DHT22;31343;47.520;19.144;2023-11-21T15:26:27;8.70;99.90
45619;DHT22;31343;47.520;19.144;2023-11-21T15:28:54;8.70;99.90
45619;DHT22;31343;47.520;19.144;2023-11-21T15:31:20;8.70;99.90
45619;DHT22;31343;47.520;19.144;2023-11-21T15:33:51;8.60;99.90
45619;DHT22;31343;47.520;19.144;2023-11-21T15:36:18;8.50;99.90
45619;DHT22;31343;47.520;19.144;2023-11-21T15:38:45;8.40;99.90
45619;DHT22;31343;47.520;19.144;2023-11-21T15:41:10;8.40;99.90
45619;DHT22;31343;47.520;19.144;2023-11-21T15:43:37;8.40;99.90
45619;DHT22;31343;47.520;19.144;2023-11-21T15:46:03;8.30;99.90